KEWB/EWB METAR and TAF weather

Enter ICAO airport designator
Station Type Date Time Source
KEWB METAR 2021/05/15 23:53 UTC NOAA

KEWB 152353Z 13004KT 10SM CLR 16/08 A3017 RMK AO2 SLP218 T01560083 10239 20156 55001


Station Type Date Time Source
KEWB Decoded METAR 2021/05/15 23:53 UTC NOAA

NEW BEDFORD REGIONAL AIRPORT, MA, United States (KEWB) 41-41N 070-58W 23M
May 15, 2021 - 07:53 PM EDT / 2021.05.15 2353 UTC
Wind: from the SE (130 degrees) at 5 MPH (4 KT):0
Visibility: 10 mile(s):0
Sky conditions: clear
Temperature: 60.1 F (15.6 C)
Dew Point: 46.9 F (8.3 C)
Relative Humidity: 61%
Pressure (altimeter): 30.17 in. Hg (1021 hPa)
Pressure tendency: 0.00 inches (0.1 hPa) lower than three hours ago
ob: KEWB 152353Z 13004KT 10SM CLR 16/08 A3017 RMK AO2 SLP218 T01560083 10239 20156 55001
cycle: 0

Station Type Date Time Source
KEWB TAF UTC NOAA

Error!

Example: see airport list